Time;durP1;ratioP1;P1;durP2;ratioP2;P2;SDS_P1;SDS_P2;PMS_P1;PMS_P2;Temp;Humidity;BMP_temperature;BMP_pressure;BME280_temperature;BME280_humidity;BME280_pressure;Samples;Min_cycle;Max_cycle;Signal;HPM_P1;HPM_P2
2024/01/17 00:01:23;;;;;;;6.63;3.33;;;-5.60;1.00;;;;;;5051459;28;20178;-83
2024/01/17 00:03:48;;;;;;;5.93;3.27;;;-5.60;99.90;;;;;;5052971;28;20189;-82
2024/01/17 00:06:14;;;;;;;6.73;3.20;;;-5.60;1.00;;;;;;5051801;28;20177;-82
2024/01/17 00:08:40;;;;;;;4.20;3.10;;;-5.70;1.00;;;;;;5052808;28;20268;-83
2024/01/17 00:11:05;;;;;;;5.67;3.07;;;-5.70;1.00;;;;;;5051142;28;20208;-82
2024/01/17 00:13:31;;;;;;;6.53;3.23;;;-5.60;1.00;;;;;;5051677;28;20177;-82
2024/01/17 00:15:56;;;;;;;6.77;3.53;;;-5.60;99.90;;;;;;5051762;28;20242;-83
2024/01/17 00:18:22;;;;;;;8.17;3.10;;;-5.70;1.00;;;;;;5051442;28;20670;-83
2024/01/17 00:20:47;;;;;;;5.30;3.20;;;-5.70;1.00;;;;;;5050921;28;20565;-82
2024/01/17 00:23:13;;;;;;;6.60;3.63;;;-5.80;1.00;;;;;;5052677;28;20174;-82
2024/01/17 00:25:38;;;;;;;4.53;3.00;;;-5.80;1.00;;;;;;5051557;28;20220;-82
2024/01/17 00:28:04;;;;;;;5.57;3.30;;;-6.00;99.90;;;;;;5052755;28;20236;-85
2024/01/17 00:30:30;;;;;;;4.87;3.07;;;-6.00;1.00;;;;;;5050612;28;20186;-82
2024/01/17 00:32:56;;;;;;;7.30;3.13;;;-5.90;1.00;;;;;;5051319;28;20185;-83
2024/01/17 00:35:21;;;;;;;5.77;3.60;;;-6.00;1.00;;;;;;5052325;28;20270;-83
2024/01/17 00:37:47;;;;;;;4.00;2.83;;;-6.10;1.00;;;;;;5052123;28;20213;-82
2024/01/17 00:40:12;;;;;;;4.97;3.00;;;-6.10;1.00;;;;;;5052071;28;20179;-83
2024/01/17 00:42:40;;;;;;;6.23;3.27;;;-6.10;1.00;;;;;;5052345;28;20169;-82
2024/01/17 00:45:07;;;;;;;6.50;3.40;;;-6.10;1.00;;;;;;5050918;28;20193;-83
2024/01/17 00:47:32;;;;;;;6.63;3.13;;;-6.10;99.90;;;;;;5052370;28;20412;-82
2024/01/17 00:49:58;;;;;;;5.20;3.00;;;-6.10;99.90;;;;;;5052136;28;20169;-82
2024/01/17 00:52:24;;;;;;;4.57;3.03;;;-6.20;99.90;;;;;;5051760;28;20194;-82
2024/01/17 00:54:50;;;;;;;5.73;3.33;;;-6.10;1.00;;;;;;5051006;28;20490;-82
2024/01/17 00:57:15;;;;;;;6.77;3.27;;;-6.20;99.90;;;;;;5051084;28;20372;-83
2024/01/17 00:59:41;;;;;;;8.20;2.90;;;-6.20;99.90;;;;;;5051025;28;20172;-82
2024/01/17 01:02:06;;;;;;;6.03;3.07;;;-6.30;99.90;;;;;;5050772;28;20190;-82
2024/01/17 01:04:32;;;;;;;7.77;3.20;;;-6.30;1.00;;;;;;5050776;28;20193;-82
2024/01/17 01:06:57;;;;;;;5.90;3.17;;;-6.20;1.00;;;;;;5051914;28;20186;-85
2024/01/17 01:09:23;;;;;;;5.17;3.17;;;-6.20;99.90;;;;;;5051761;28;20319;-82
2024/01/17 01:11:48;;;;;;;8.67;3.03;;;-6.30;1.00;;;;;;5050322;28;20674;-82
2024/01/17 01:14:14;;;;;;;6.73;2.93;;;-6.20;1.00;;;;;;5050605;28;20201;-82
2024/01/17 01:16:41;;;;;;;4.97;2.83;;;-6.30;1.00;;;;;;5051960;28;20257;-83
2024/01/17 01:19:06;;;;;;;6.90;3.40;;;-6.20;99.90;;;;;;5050648;28;20201;-83
2024/01/17 01:21:32;;;;;;;5.03;3.03;;;-6.20;65.60;;;;;;5050163;28;20419;-82
2024/01/17 01:23:58;;;;;;;5.30;3.30;;;-6.10;1.00;;;;;;5050770;28;20204;-82
2024/01/17 01:26:23;;;;;;;4.93;3.00;;;-6.10;1.00;;;;;;5052149;28;20169;-83
2024/01/17 01:28:49;;;;;;;4.33;2.80;;;-6.40;1.00;;;;;;5050515;28;20230;-83
2024/01/17 01:31:14;;;;;;;5.83;3.80;;;-6.40;99.90;;;;;;5050141;28;20182;-83
2024/01/17 01:33:40;;;;;;;4.60;3.30;;;-6.30;99.90;;;;;;5050699;28;20181;-85
2024/01/17 01:36:05;;;;;;;5.00;3.07;;;-6.40;1.00;;;;;;5051589;28;20176;-82
2024/01/17 01:38:31;;;;;;;5.30;3.50;;;-6.40;1.00;;;;;;5051637;28;20214;-82
2024/01/17 01:40:58;;;;;;;4.63;3.20;;;-6.50;99.90;;;;;;5050956;28;20265;-83
2024/01/17 01:43:25;;;;;;;6.67;3.37;;;-6.50;99.90;;;;;;5050698;28;20182;-82
2024/01/17 01:46:11;;;;;;;7.70;3.87;;;-6.70;1.00;;;;;;5051512;28;20959;-84
2024/01/17 01:48:36;;;;;;;8.30;3.57;;;-6.70;99.90;;;;;;5051813;28;20407;-83
2024/01/17 01:51:03;;;;;;;5.40;3.10;;;-6.80;99.90;;;;;;5051226;28;20419;-82
2024/01/17 01:53:32;;;;;;;8.00;3.33;;;-6.70;99.90;;;;;;5051444;28;20275;-82
2024/01/17 01:55:58;;;;;;;7.07;3.53;;;-6.70;99.90;;;;;;5051495;28;20438;-82
2024/01/17 01:58:25;;;;;;;7.80;3.50;;;-6.60;99.90;;;;;;5051665;28;20462;-82
2024/01/17 02:00:54;;;;;;;6.53;3.50;;;-6.70;99.90;;;;;;5049720;28;20425;-82
2024/01/17 02:03:20;;;;;;;7.40;3.20;;;-6.60;99.90;;;;;;5051476;28;20760;-82
2024/01/17 02:05:47;;;;;;;4.50;3.07;;;-6.70;99.90;;;;;;5050413;28;20437;-83
2024/01/17 02:08:13;;;;;;;6.00;3.00;;;-6.70;1.00;;;;;;5051596;28;20792;-82
2024/01/17 02:10:40;;;;;;;6.13;3.10;;;-6.60;1.00;;;;;;5051059;28;20426;-82
2024/01/17 02:13:06;;;;;;;5.43;3.03;;;-6.60;1.00;;;;;;5053925;28;20246;-82
2024/01/17 02:15:32;;;;;;;5.47;3.20;;;-6.50;1.00;;;;;;5054914;28;20513;-83
2024/01/17 02:17:58;;;;;;;5.87;3.30;;;-6.50;1.00;;;;;;5053879;28;20620;-82
2024/01/17 02:20:23;;;;;;;6.40;3.30;;;-6.50;1.00;;;;;;5054378;28;20176;-83
2024/01/17 02:22:49;;;;;;;6.60;3.77;;;-6.50;1.00;;;;;;5055173;28;20176;-82
2024/01/17 02:25:14;;;;;;;11.30;3.83;;;-6.50;1.00;;;;;;5053455;28;20208;-82
2024/01/17 02:27:40;;;;;;;9.57;4.67;;;-6.40;99.90;;;;;;5054818;28;20175;-83
2024/01/17 02:30:07;;;;;;;12.30;4.83;;;-6.60;99.90;;;;;;5053109;28;20233;-82
2024/01/17 02:32:34;;;;;;;11.37;4.10;;;-6.70;1.00;;;;;;5054566;28;20206;-82
2024/01/17 02:35:00;;;;;;;6.40;3.77;;;-6.80;1.00;;;;;;5053650;28;20497;-83
2024/01/17 02:37:26;;;;;;;7.27;3.83;;;-6.90;1.00;;;;;;5053499;28;20790;-82
2024/01/17 02:39:52;;;;;;;6.17;3.80;;;-7.00;1.00;;;;;;5054545;28;20925;-83
2024/01/17 02:42:17;;;;;;;7.37;3.83;;;-7.20;1.00;;;;;;5053105;28;20203;-82
2024/01/17 02:44:43;;;;;;;8.03;4.03;;;-7.20;1.00;;;;;;5054396;28;20190;-83
2024/01/17 02:47:08;;;;;;;9.47;4.63;;;-7.10;1.00;;;;;;5053224;28;20201;-82
2024/01/17 02:49:34;;;;;;;7.50;4.10;;;-7.10;4.00;;;;;;5053385;28;20285;-84
2024/01/17 02:51:59;;;;;;;8.73;3.90;;;-7.00;26.00;;;;;;5054091;28;20183;-82
2024/01/17 02:54:25;;;;;;;8.80;4.00;;;-6.90;40.00;;;;;;5054394;28;20214;-82
2024/01/17 02:56:51;;;;;;;8.70;3.87;;;-6.90;12.50;;;;;;5054433;28;20179;-82
2024/01/17 02:59:17;;;;;;;8.27;3.90;;;-6.80;1.00;;;;;;5053049;28;20569;-85
2024/01/17 03:01:43;;;;;;;7.87;4.00;;;-6.80;1.00;;;;;;5053700;28;20173;-83
2024/01/17 03:04:08;;;;;;;5.77;3.43;;;-6.80;1.00;;;;;;5052763;28;20976;-85
2024/01/17 03:06:34;;;;;;;7.83;3.83;;;-6.90;1.00;;;;;;5052882;28;20178;-82
2024/01/17 03:08:59;;;;;;;5.07;3.70;;;-6.90;1.00;;;;;;5053129;28;20180;-83
2024/01/17 03:11:25;;;;;;;7.60;3.57;;;-6.90;1.00;;;;;;5052475;28;20170;-83
2024/01/17 03:13:50;;;;;;;7.97;3.80;;;-6.90;1.00;;;;;;5052581;28;20256;-83
2024/01/17 03:16:19;;;;;;;6.37;3.43;;;-6.90;1.00;;;;;;5053938;28;20168;-82
2024/01/17 03:18:44;;;;;;;7.03;3.70;;;-7.00;1.00;;;;;;5052563;28;20227;-82
2024/01/17 03:21:10;;;;;;;4.87;3.37;;;-7.00;1.00;;;;;;5053374;28;20456;-82
2024/01/17 03:23:36;;;;;;;5.73;3.30;;;-6.90;1.00;;;;;;5051629;28;20181;-82
2024/01/17 03:26:01;;;;;;;6.17;3.13;;;-7.00;1.00;;;;;;5053918;28;20272;-82
2024/01/17 03:28:27;;;;;;;5.63;3.17;;;-7.00;1.00;;;;;;5052404;28;20209;-82
2024/01/17 03:30:53;;;;;;;5.23;3.03;;;-7.00;1.00;;;;;;5051828;28;20175;-82
2024/01/17 03:33:18;;;;;;;8.30;3.00;;;-7.00;1.00;;;;;;5052631;28;21006;-82
2024/01/17 03:35:44;;;;;;;8.37;3.90;;;-6.90;1.00;;;;;;5053430;28;20199;-83
2024/01/17 03:38:09;;;;;;;6.47;3.33;;;-6.80;1.00;;;;;;5053579;28;20644;-83
2024/01/17 03:40:35;;;;;;;5.07;3.47;;;-6.90;1.00;;;;;;5051662;28;20168;-82
2024/01/17 03:43:00;;;;;;;8.87;3.20;;;-6.90;1.00;;;;;;5052220;28;20176;-82
2024/01/17 03:45:26;;;;;;;4.63;3.30;;;-6.80;99.90;;;;;;5053135;28;20192;-82
2024/01/17 03:47:52;;;;;;;4.83;3.17;;;-6.80;99.90;;;;;;5052137;28;20257;-83
2024/01/17 03:50:17;;;;;;;6.70;3.30;;;-6.90;99.90;;;;;;5051544;28;20203;-82
2024/01/17 03:52:43;;;;;;;8.30;3.50;;;-6.90;99.90;;;;;;5053395;28;20590;-82
2024/01/17 03:55:08;;;;;;;4.37;2.93;;;-7.00;1.00;;;;;;5053203;28;20226;-83
2024/01/17 03:57:34;;;;;;;7.00;3.47;;;-7.10;1.00;;;;;;5051934;28;20182;-83
2024/01/17 04:00:02;;;;;;;4.90;3.33;;;-7.10;1.00;;;;;;5052787;28;20178;-82
2024/01/17 04:02:27;;;;;;;8.30;3.17;;;-7.10;1.00;;;;;;5051838;28;20436;-82
2024/01/17 04:04:53;;;;;;;7.10;3.10;;;-7.00;1.00;;;;;;5051701;28;20826;-82
2024/01/17 04:07:21;;;;;;;6.70;2.97;;;-7.00;1.00;;;;;;5051821;28;20651;-83
2024/01/17 04:09:47;;;;;;;5.80;2.80;;;-7.00;1.00;;;;;;5051535;28;20566;-82
2024/01/17 04:12:13;;;;;;;4.47;3.10;;;-7.10;1.00;;;;;;5052486;28;20421;-82
2024/01/17 04:14:39;;;;;;;5.77;2.80;;;-7.00;1.00;;;;;;5052586;28;20204;-84
2024/01/17 04:17:04;;;;;;;4.77;2.67;;;-7.00;1.00;;;;;;5052737;28;20178;-85
2024/01/17 04:19:30;;;;;;;3.70;2.37;;;-6.90;1.00;;;;;;5052635;28;20197;-83
2024/01/17 04:21:56;;;;;;;5.63;3.00;;;-6.90;1.00;;;;;;5051475;28;20220;-82
2024/01/17 04:24:25;;;;;;;5.23;2.60;;;-6.90;99.90;;;;;;5052542;28;20213;-82
2024/01/17 04:26:54;;;;;;;4.30;2.57;;;-6.80;99.90;;;;;;5051437;28;20414;-82
2024/01/17 04:29:19;;;;;;;6.27;3.00;;;-6.90;99.90;;;;;;5051218;28;20433;-82
2024/01/17 04:31:45;;;;;;;4.80;3.20;;;-7.00;1.00;;;;;;5050861;28;20506;-82
2024/01/17 04:34:10;;;;;;;6.27;3.13;;;-7.00;1.00;;;;;;5051180;28;20244;-82
2024/01/17 04:36:36;;;;;;;5.43;3.03;;;-7.00;1.00;;;;;;5051036;28;20273;-82
2024/01/17 04:39:02;;;;;;;6.17;2.97;;;-7.00;1.00;;;;;;5052367;28;20292;-82
2024/01/17 04:41:28;;;;;;;4.07;3.00;;;-7.00;1.00;;;;;;5050930;28;20181;-82
2024/01/17 04:43:53;;;;;;;5.13;2.87;;;-7.10;1.00;;;;;;5050921;28;20437;-83
2024/01/17 04:46:21;;;;;;;4.27;2.57;;;-7.00;1.00;;;;;;5052666;28;20186;-82
2024/01/17 04:48:46;;;;;;;5.80;3.03;;;-7.00;1.00;;;;;;5050846;28;20502;-82
2024/01/17 04:51:12;;;;;;;5.53;2.93;;;-7.00;1.00;;;;;;5050834;28;20190;-82
2024/01/17 04:53:41;;;;;;;4.87;3.10;;;-7.00;1.00;;;;;;5052261;28;20178;-82
2024/01/17 04:56:09;;;;;;;5.53;3.27;;;-7.00;1.00;;;;;;5052973;28;20425;-82
2024/01/17 04:58:35;;;;;;;5.20;3.17;;;-7.00;1.00;;;;;;5050843;28;20518;-82
2024/01/17 05:01:01;;;;;;;6.27;3.03;;;-6.90;1.00;;;;;;5051766;28;20414;-82
2024/01/17 05:03:27;;;;;;;5.57;3.20;;;-6.90;1.00;;;;;;5051206;28;20476;-82
2024/01/17 05:05:53;;;;;;;7.57;3.57;;;-7.00;1.00;;;;;;5050657;28;20282;-82
2024/01/17 05:08:19;;;;;;;6.17;3.23;;;-6.90;1.00;;;;;;5050702;28;20429;-82
2024/01/17 05:10:45;;;;;;;5.93;2.90;;;-7.00;1.00;;;;;;5051937;28;20501;-82
2024/01/17 05:13:11;;;;;;;4.77;2.90;;;-7.10;1.00;;;;;;5053890;28;20392;-82
2024/01/17 05:15:37;;;;;;;5.60;3.07;;;-7.00;1.00;;;;;;5056149;28;20451;-82
2024/01/17 05:18:04;;;;;;;5.00;2.80;;;-7.00;1.00;;;;;;5056145;28;20496;-83
2024/01/17 05:20:30;;;;;;;5.67;3.50;;;-7.10;99.90;;;;;;5054108;28;20175;-82
2024/01/17 05:22:55;;;;;;;6.73;3.23;;;-7.20;1.00;;;;;;5054822;28;20428;-83
2024/01/17 05:25:21;;;;;;;6.73;3.57;;;-7.20;1.00;;;;;;5052536;28;20277;-82
2024/01/17 05:27:52;;;;;;;5.53;2.90;;;-7.20;1.00;;;;;;5052004;28;20178;-82
2024/01/17 05:30:19;;;;;;;5.37;3.33;;;-7.20;1.00;;;;;;5051409;28;20179;-82
2024/01/17 05:32:45;;;;;;;7.80;3.37;;;-7.30;1.00;;;;;;5050342;28;20421;-82
2024/01/17 05:35:10;;;;;;;5.40;3.07;;;-7.20;1.00;;;;;;5050605;28;20533;-82
2024/01/17 05:37:40;;;;;;;6.83;3.20;;;-7.10;1.00;;;;;;5050402;28;20238;-82
2024/01/17 05:40:08;;;;;;;6.23;3.40;;;-7.10;1.00;;;;;;5051403;28;20255;-82
2024/01/17 05:42:34;;;;;;;5.17;3.50;;;-7.00;1.00;;;;;;5051990;28;20445;-82
2024/01/17 05:44:59;;;;;;;5.57;3.20;;;-7.00;1.00;;;;;;5050499;28;20465;-82
2024/01/17 05:47:25;;;;;;;8.17;3.70;;;-7.10;1.00;;;;;;5053014;28;20182;-82
2024/01/17 05:49:51;;;;;;;7.23;3.50;;;-7.00;1.00;;;;;;5055382;28;20213;-82
2024/01/17 05:52:16;;;;;;;4.97;2.97;;;-7.00;1.00;;;;;;5053810;28;20181;-82
2024/01/17 05:54:42;;;;;;;4.73;2.97;;;-7.00;1.00;;;;;;5055365;28;20210;-82
2024/01/17 05:57:08;;;;;;;5.40;3.10;;;-7.00;1.00;;;;;;5055557;28;20175;-81
2024/01/17 05:59:34;;;;;;;7.30;3.30;;;-7.10;1.00;;;;;;5055425;28;20237;-82
2024/01/17 06:01:59;;;;;;;5.23;3.30;;;-7.00;1.00;;;;;;5053700;28;20462;-82
2024/01/17 06:04:25;;;;;;;5.47;2.87;;;-7.00;1.00;;;;;;5054225;28;20571;-82
2024/01/17 06:06:50;;;;;;;4.43;3.10;;;-6.90;1.00;;;;;;5054143;28;20166;-82
2024/01/17 06:09:16;;;;;;;4.77;3.10;;;-6.90;1.00;;;;;;5053848;28;20605;-82
2024/01/17 06:11:42;;;;;;;6.33;3.40;;;-6.80;1.00;;;;;;5054971;28;20589;-82
2024/01/17 06:14:08;;;;;;;7.03;3.70;;;-6.80;1.00;;;;;;5053979;28;21002;-82
2024/01/17 06:16:33;;;;;;;6.07;3.00;;;-6.70;1.00;;;;;;5055112;28;20170;-82
2024/01/17 06:18:59;;;;;;;6.00;3.10;;;-6.70;1.00;;;;;;5053568;28;20213;-82
2024/01/17 06:21:26;;;;;;;6.30;3.33;;;-6.80;1.00;;;;;;5053192;28;20175;-82
2024/01/17 06:23:53;;;;;;;6.07;3.30;;;-6.70;1.00;;;;;;5054850;28;20195;-82
2024/01/17 06:26:18;;;;;;;6.33;3.37;;;-6.70;1.00;;;;;;5055026;28;20512;-83
2024/01/17 06:28:44;;;;;;;8.37;3.83;;;-6.60;1.00;;;;;;5053802;28;20452;-82
2024/01/17 06:31:10;;;;;;;6.43;3.47;;;-6.60;1.00;;;;;;5052912;28;20180;-83
2024/01/17 06:33:35;;;;;;;7.00;3.60;;;-6.70;1.00;;;;;;5054747;28;20179;-82
2024/01/17 06:36:01;;;;;;;3.50;2.20;;;-6.80;1.00;;;;;;5053467;28;20175;-81
2024/01/17 06:38:27;;;;;;;4.40;2.77;;;-6.60;1.00;;;;;;5053562;28;20206;-84
2024/01/17 06:40:52;;;;;;;6.07;3.67;;;-5.10;99.90;;;;;;5054350;28;20220;-84
2024/01/17 06:43:18;;;;;;;8.60;3.73;;;-3.80;99.90;;;;;;5055052;28;20192;-83
2024/01/17 06:45:43;;;;;;;5.37;3.67;;;-3.00;99.90;;;;;;5054639;28;20197;-84
2024/01/17 06:48:09;;;;;;;6.90;3.97;;;-2.40;99.90;;;;;;5055429;28;20543;-83
2024/01/17 06:50:35;;;;;;;6.43;4.07;;;-1.80;99.90;;;;;;5053898;28;20178;-84
2024/01/17 06:53:00;;;;;;;7.27;4.07;;;-2.10;99.90;;;;;;5053327;28;20182;-83
2024/01/17 06:55:26;;;;;;;7.70;4.00;;;-3.10;99.90;;;;;;5053290;28;20240;-84
2024/01/17 06:57:52;;;;;;;8.33;4.23;;;-3.80;1.00;;;;;;5052996;28;20671;-84
2024/01/17 07:00:18;;;;;;;7.37;4.37;;;-4.30;99.90;;;;;;5052658;28;20257;-84
2024/01/17 07:02:44;;;;;;;6.53;3.87;;;-4.80;1.00;;;;;;5053237;28;20180;-83
2024/01/17 07:05:09;;;;;;;5.80;4.20;;;-5.10;28.00;;;;;;5054629;28;20193;-84
2024/01/17 07:07:37;;;;;;;8.10;4.50;;;-5.50;1.00;;;;;;5053272;28;20260;-85
2024/01/17 07:10:05;;;;;;;7.17;4.53;;;-5.70;1.00;;;;;;5054026;28;20201;-80
2024/01/17 07:12:30;;;;;;;8.40;4.93;;;-5.50;1.00;;;;;;5053065;28;20180;-83
2024/01/17 07:14:56;;;;;;;9.27;4.80;;;-5.60;1.00;;;;;;5054481;28;20190;-84
2024/01/17 07:17:22;;;;;;;9.00;4.90;;;-5.70;99.90;;;;;;5054613;28;20230;-84
2024/01/17 07:19:47;;;;;;;10.83;5.17;;;-5.70;99.90;;;;;;5053910;28;20577;-84
2024/01/17 07:22:13;;;;;;;10.57;5.43;;;-5.80;99.90;;;;;;5053644;28;20257;-84
2024/01/17 07:24:39;;;;;;;10.77;6.20;;;-5.90;1.00;;;;;;5054017;28;20189;-84
2024/01/17 07:27:04;;;;;;;8.90;5.20;;;-6.00;1.00;;;;;;5053929;28;20197;-84
2024/01/17 07:29:30;;;;;;;7.83;5.43;;;-6.00;1.00;;;;;;5053986;28;20187;-84
2024/01/17 07:31:56;;;;;;;12.60;6.17;;;-6.00;1.00;;;;;;5052250;28;20176;-84
2024/01/17 07:34:22;;;;;;;8.73;5.60;;;-6.00;1.00;;;;;;5052669;28;20439;-84
2024/01/17 07:36:48;;;;;;;10.87;6.40;;;-6.00;1.00;;;;;;5053485;28;20179;-84
2024/01/17 07:39:14;;;;;;;11.67;6.60;;;-6.10;1.00;;;;;;5052072;28;20228;-81
2024/01/17 07:41:40;;;;;;;10.77;6.47;;;-6.10;1.00;;;;;;5053290;28;20643;-84
2024/01/17 07:44:06;;;;;;;15.63;7.33;;;-6.10;24.00;;;;;;5053502;28;20432;-83
2024/01/17 07:46:32;;;;;;;12.20;6.33;;;-6.00;64.70;;;;;;5052296;28;20496;-84
2024/01/17 07:48:58;;;;;;;12.07;6.30;;;-5.90;66.00;;;;;;5054082;28;20454;-85
2024/01/17 07:51:23;;;;;;;11.17;6.37;;;-6.00;40.10;;;;;;5051769;28;20186;-85
2024/01/17 07:53:49;;;;;;;12.37;6.40;;;-6.00;60.40;;;;;;5053507;28;20180;-85
2024/01/17 07:56:15;;;;;;;9.67;6.13;;;-5.90;99.90;;;;;;5067410;28;20169;-84
2024/01/17 07:58:41;;;;;;;11.50;5.97;;;-5.30;99.90;;;;;;5056732;28;20295;-83
2024/01/17 08:01:06;;;;;;;9.13;5.87;;;-5.10;99.90;;;;;;5054645;28;20174;-84
2024/01/17 08:03:32;;;;;;;12.20;6.00;;;-5.20;99.90;;;;;;5053873;28;20176;-82
2024/01/17 08:05:58;;;;;;;7.97;5.77;;;-5.20;10.50;;;;;;5053646;28;20173;-83
2024/01/17 08:08:23;;;;;;;11.90;7.33;;;-5.30;1.00;;;;;;5067058;28;20177;-83
2024/01/17 08:10:49;;;;;;;12.83;7.53;;;-5.30;1.00;;;;;;5062755;28;20556;-84
2024/01/17 08:13:14;;;;;;;13.63;6.80;;;-5.30;39.10;;;;;;5053332;28;20193;-83
2024/01/17 08:15:41;;;;;;;9.07;5.57;;;-5.30;66.20;;;;;;5055109;28;20200;-83
2024/01/17 08:18:08;;;;;;;9.17;6.00;;;-5.30;99.90;;;;;;5063020;28;20201;-84
2024/01/17 08:20:34;;;;;;;9.00;6.07;;;-5.20;99.90;;;;;;5058948;28;20415;-83
2024/01/17 08:22:59;;;;;;;9.70;6.27;;;-5.10;99.90;;;;;;5054695;28;20184;-83
2024/01/17 08:25:26;;;;;;;9.73;5.87;;;-5.10;99.90;;;;;;5053489;28;20189;-85
2024/01/17 08:27:54;;;;;;;9.60;6.10;;;-5.00;99.90;;;;;;5052820;28;20172;-83
2024/01/17 08:30:20;;;;;;;8.60;6.23;;;-5.00;99.90;;;;;;5054049;28;20934;-84
2024/01/17 08:32:45;;;;;;;13.70;6.77;;;-4.90;99.90;;;;;;5053329;28;20495;-84
2024/01/17 08:35:12;;;;;;;11.80;6.23;;;-4.90;99.90;;;;;;5053541;28;20265;-83
2024/01/17 08:37:37;;;;;;;12.37;6.23;;;-4.90;99.90;;;;;;5056302;28;20174;-83
2024/01/17 08:40:04;;;;;;;10.47;5.93;;;-4.80;99.90;;;;;;5072686;28;20179;-81
2024/01/17 08:42:29;;;;;;;11.77;7.10;;;-4.70;99.90;;;;;;5056771;28;20229;-84
2024/01/17 08:44:55;;;;;;;14.50;8.13;;;-4.70;99.90;;;;;;5071599;28;20196;-83
2024/01/17 08:47:20;;;;;;;11.77;7.63;;;-4.50;99.90;;;;;;5071644;28;20554;-83
2024/01/17 08:49:46;;;;;;;11.13;7.23;;;-4.50;99.90;;;;;;5066786;28;20265;-83
2024/01/17 08:52:11;;;;;;;13.17;7.17;;;-4.50;99.90;;;;;;5063400;28;20188;-83
2024/01/17 08:54:37;;;;;;;19.37;11.13;;;-4.50;99.90;;;;;;5072208;28;20213;-83
2024/01/17 08:57:03;;;;;;;19.00;9.37;;;-4.50;99.90;;;;;;5065928;28;20228;-83
2024/01/17 08:59:28;;;;;;;17.30;10.30;;;-4.40;99.90;;;;;;5053808;28;20208;-83
2024/01/17 09:01:56;;;;;;;14.80;8.37;;;-4.30;99.90;;;;;;5072243;28;20260;-83
2024/01/17 09:04:22;;;;;;;13.83;7.90;;;-4.20;99.90;;;;;;5072795;28;20193;-84
2024/01/17 09:06:47;;;;;;;14.03;7.83;;;-4.20;99.90;;;;;;5070687;28;20180;-81
2024/01/17 09:09:14;;;;;;;15.20;8.27;;;-4.20;99.90;;;;;;5062945;28;20618;-84
2024/01/17 09:11:40;;;;;;;17.17;9.67;;;-4.20;99.90;;;;;;5066788;28;20188;-84
2024/01/17 09:14:06;;;;;;;20.63;10.80;;;-4.00;99.90;;;;;;5064482;28;20197;-83
2024/01/17 09:16:32;;;;;;;19.03;10.27;;;-4.00;99.90;;;;;;5072860;28;20173;-83
2024/01/17 09:18:57;;;;;;;20.17;10.77;;;-3.90;99.90;;;;;;5064423;28;20201;-83
2024/01/17 09:21:23;;;;;;;20.07;10.63;;;-3.80;99.90;;;;;;5050577;28;20181;-84
2024/01/17 09:23:48;;;;;;;21.57;10.70;;;-3.80;99.90;;;;;;5055531;28;20181;-84
2024/01/17 09:26:14;;;;;;;18.43;10.17;;;-3.70;99.90;;;;;;5072119;28;20617;-83
2024/01/17 09:28:40;;;;;;;17.83;9.97;;;-3.60;99.90;;;;;;5056708;28;20189;-83
2024/01/17 09:31:05;;;;;;;15.30;8.43;;;-3.40;99.90;;;;;;5064007;28;20187;-84
2024/01/17 09:33:31;;;;;;;15.57;7.43;;;-3.40;99.90;;;;;;5068028;28;20181;-83
2024/01/17 09:35:56;;;;;;;14.30;8.03;;;-3.30;99.90;;;;;;5060700;28;20633;-83
2024/01/17 09:38:22;;;;;;;11.73;7.20;;;-3.30;99.90;;;;;;5075351;28;20201;-84
2024/01/17 09:40:49;;;;;;;12.67;7.63;;;-3.30;99.90;;;;;;5076301;28;20179;-84
2024/01/17 09:43:17;;;;;;;14.60;7.70;;;-3.40;99.90;;;;;;5076768;28;20637;-83
2024/01/17 09:45:42;;;;;;;15.83;8.50;;;-3.30;99.90;;;;;;5061813;28;20201;-83
2024/01/17 09:48:11;;;;;;;13.97;7.97;;;-3.30;99.90;;;;;;5064225;28;20533;-84
2024/01/17 09:50:36;;;;;;;12.83;8.53;;;-3.30;99.90;;;;;;5069550;28;20189;-83
2024/01/17 09:53:06;;;;;;;14.50;8.40;;;-3.30;99.90;;;;;;5069341;28;20264;-84
2024/01/17 09:55:34;;;;;;;15.67;8.77;;;-3.20;99.90;;;;;;5070716;28;20704;-83
2024/01/17 09:58:00;;;;;;;12.77;7.97;;;-3.20;99.90;;;;;;5061998;28;20204;-83
2024/01/17 10:00:27;;;;;;;24.63;12.33;;;-3.10;99.90;;;;;;5072961;28;20174;-83
2024/01/17 10:02:55;;;;;;;28.07;13.90;;;-3.10;99.90;;;;;;5064578;28;20187;-83
2024/01/17 10:05:23;;;;;;;20.00;11.17;;;-3.00;99.90;;;;;;5058892;28;20220;-83
2024/01/17 10:07:50;;;;;;;19.23;10.40;;;-3.00;99.90;;;;;;5062178;28;20706;-83
2024/01/17 10:10:16;;;;;;;14.30;8.50;;;-2.90;99.90;;;;;;5075587;28;20181;-82
2024/01/17 10:12:42;;;;;;;16.20;8.90;;;-2.70;99.90;;;;;;5075105;28;20177;-81
2024/01/17 10:15:12;;;;;;;21.33;10.77;;;-1.50;99.90;;;;;;5075871;28;20203;-83
2024/01/17 10:17:38;;;;;;;16.13;10.50;;;-0.10;99.90;;;;;;5075691;28;20175;-83
2024/01/17 10:20:04;;;;;;;18.43;11.47;;;0.80;99.90;;;;;;5075103;28;20257;-81
2024/01/17 10:22:31;;;;;;;19.23;11.80;;;1.20;99.90;;;;;;5075446;28;20645;-83
2024/01/17 10:25:00;;;;;;;18.30;10.40;;;1.00;1.00;;;;;;5073631;28;20200;-84
2024/01/17 10:27:27;;;;;;;17.10;10.40;;;0.40;1.00;;;;;;5074958;28;20199;-83
2024/01/17 10:29:53;;;;;;;14.13;9.23;;;-0.20;1.00;;;;;;5073579;28;20173;-83
2024/01/17 10:32:18;;;;;;;15.43;9.07;;;-0.70;1.00;;;;;;5074695;28;20219;-86
2024/01/17 10:34:44;;;;;;;14.40;8.20;;;-1.10;1.00;;;;;;5073381;28;20196;-83
2024/01/17 10:37:11;;;;;;;15.00;9.23;;;-1.30;1.00;;;;;;5074051;28;20177;-83
2024/01/17 10:39:37;;;;;;;16.23;9.93;;;-1.60;55.20;;;;;;5074526;28;20289;-83
2024/01/17 10:42:05;;;;;;;14.93;10.00;;;-1.80;99.90;;;;;;5074384;28;20595;-83
2024/01/17 10:44:31;;;;;;;15.47;10.10;;;-1.90;99.90;;;;;;5073586;28;20198;-85
2024/01/17 10:46:57;;;;;;;16.67;10.47;;;-2.00;99.90;;;;;;5074686;28;20176;-83
2024/01/17 10:49:24;;;;;;;17.07;9.67;;;-1.90;99.90;;;;;;5073286;28;20595;-83
2024/01/17 10:52:02;;;;;;;18.07;10.07;;;-2.00;99.90;;;;;;5073065;28;20274;-85
2024/01/17 10:57:04;;;;;;;14.73;8.97;;;-1.90;99.90;;;;;;5053026;28;20706;-83
2024/01/17 10:59:29;;;;;;;12.77;8.80;;;-1.80;99.90;;;;;;5053071;28;20299;-84
2024/01/17 11:01:55;;;;;;;16.20;9.77;;;-1.80;99.90;;;;;;5052696;28;20266;-83
2024/01/17 11:04:25;;;;;;;17.03;10.47;;;-1.80;99.90;;;;;;5053198;28;20192;-83
2024/01/17 11:06:52;;;;;;;14.90;8.90;;;-1.80;99.90;;;;;;5054153;28;20176;-83
2024/01/17 11:09:21;;;;;;;15.40;9.57;;;-1.80;99.90;;;;;;5054307;28;20175;-83
2024/01/17 11:11:48;;;;;;;14.93;9.07;;;-1.70;99.90;;;;;;5053932;28;20176;-83
2024/01/17 11:14:16;;;;;;;17.07;9.13;;;-1.60;99.90;;;;;;5054014;28;20550;-83
2024/01/17 11:16:47;;;;;;;11.83;8.40;;;-1.50;99.90;;;;;;5054297;28;20234;-83
2024/01/17 11:19:14;;;;;;;15.37;8.80;;;-1.50;99.90;;;;;;5054441;28;20222;-84
2024/01/17 11:21:40;;;;;;;17.40;12.60;;;-1.50;99.90;;;;;;5054457;28;20649;-83
2024/01/17 11:24:27;;;;;;;15.90;10.57;;;-1.40;99.90;;;;;;5054810;28;20252;-84
2024/01/17 11:27:25;;;;;;;12.30;8.63;;;-1.40;99.90;;;;;;5053719;28;20660;-83
2024/01/17 11:30:26;;;;;;;11.47;8.00;;;-1.50;99.90;;;;;;5053191;28;20181;-84
2024/01/17 11:33:07;;;;;;;13.07;8.47;;;-1.40;99.90;;;;;;5019922;28;20304;-83
2024/01/17 11:35:45;;;;;;;11.20;7.70;;;-1.30;99.90;;;;;;5054493;28;20218;-85
2024/01/17 11:38:23;;;;;;;13.20;8.10;;;-1.30;99.90;;;;;;5053424;28;20208;-84
2024/01/17 11:40:53;;;;;;;13.10;8.93;;;-1.30;99.90;;;;;;5052908;28;20166;-83
2024/01/17 11:43:19;;;;;;;13.93;8.97;;;-1.40;99.90;;;;;;5053798;28;20225;-81
2024/01/17 11:45:47;;;;;;;13.10;8.53;;;-1.40;99.90;;;;;;5052771;28;20200;-84
2024/01/17 11:48:29;;;;;;;13.53;8.07;;;-1.30;99.90;;;;;;5054637;28;20180;-85
2024/01/17 11:51:01;;;;;;;13.30;9.03;;;-1.20;99.90;;;;;;5053095;28;20652;-82
2024/01/17 11:53:28;;;;;;;12.93;8.73;;;-1.10;99.90;;;;;;5052302;28;20203;-84
2024/01/17 11:55:56;;;;;;;15.57;8.87;;;-1.10;99.90;;;;;;5052209;28;20217;-83
2024/01/17 11:58:36;;;;;;;16.20;10.43;;;-1.00;99.90;;;;;;5052012;28;20197;-83
2024/01/17 12:01:03;;;;;;;12.53;8.00;;;-0.90;99.90;;;;;;5051632;28;20180;-83
2024/01/17 12:03:32;;;;;;;12.90;8.73;;;-0.90;99.90;;;;;;5053553;28;20172;-83
2024/01/17 12:06:01;;;;;;;17.10;10.07;;;-0.80;99.90;;;;;;5052168;28;20264;-83
2024/01/17 12:08:27;;;;;;;18.50;11.57;;;2.20;99.90;;;;;;5052041;28;20175;-82
2024/01/17 12:10:56;;;;;;;13.33;8.83;;;5.40;99.90;;;;;;5052294;28;20177;-82
2024/01/17 12:13:23;;;;;;;10.03;7.53;;;;;;;;;;5054341;28;20177;-82
2024/01/17 12:16:01;;;;;;;8.93;7.23;;;8.10;1.00;;;;;;5053345;28;20203;-83
2024/01/17 12:18:27;;;;;;;9.67;7.27;;;8.60;99.90;;;;;;5052737;28;20677;-82
2024/01/17 12:20:54;;;;;;;9.77;7.17;;;8.00;1.00;;;;;;5051504;28;20177;-82
2024/01/17 12:23:22;;;;;;;9.80;7.43;;;5.60;99.90;;;;;;5051837;28;20174;-82
2024/01/17 12:25:49;;;;;;;8.30;6.97;;;4.10;99.90;;;;;;5051902;28;20207;-82
2024/01/17 12:28:22;;;;;;;12.97;7.70;;;3.00;99.90;;;;;;5052059;28;20179;-82
2024/01/17 12:30:58;;;;;;;11.07;7.90;;;2.30;99.90;;;;;;5052482;28;20644;-82
2024/01/17 12:33:27;;;;;;;11.97;7.80;;;1.70;1.00;;;;;;5052974;28;20183;-82
2024/01/17 12:35:55;;;;;;;12.13;7.77;;;1.30;1.00;;;;;;5051505;28;20194;-82
2024/01/17 12:38:21;;;;;;;9.60;7.07;;;0.90;1.00;;;;;;5052490;28;20393;-82
2024/01/17 12:40:50;;;;;;;12.13;8.00;;;0.70;1.00;;;;;;5052339;28;20169;-82
2024/01/17 12:43:20;;;;;;;12.10;7.83;;;0.50;69.70;;;;;;5051769;28;20216;-82
2024/01/17 12:45:46;;;;;;;12.87;8.17;;;0.30;99.90;;;;;;5052725;28;20193;-82
2024/01/17 12:48:15;;;;;;;12.43;8.43;;;0.20;99.90;;;;;;5051749;28;20558;-82